createdAt,value
2023-05-01T00:00:01.512Z,63.45
2023-05-01T00:05:01.986Z,63.54
2023-05-01T00:10:00.604Z,64.02
2023-05-01T00:15:00.517Z,64.58
2023-05-01T00:20:00.476Z,64.96
2023-05-01T00:25:00.485Z,65.53
2023-05-01T00:30:00.544Z,65.93
2023-05-01T00:35:00.484Z,65.58
2023-05-01T00:40:00.460Z,65.12
2023-05-01T00:45:00.581Z,65.16
2023-05-01T00:50:00.888Z,65.32
2023-05-01T00:55:00.649Z,65.30
2023-05-01T01:00:02.451Z,65.48
2023-05-01T01:05:00.451Z,65.29
2023-05-01T01:10:12.759Z,64.53
2023-05-01T01:15:12.477Z,64.44
2023-05-01T01:20:17.737Z,64.11
2023-05-01T01:25:20.373Z,63.77
2023-05-01T01:30:11.407Z,64.66
2023-05-01T01:35:04.155Z,63.63
2023-05-01T01:40:11.978Z,63.33
2023-05-01T01:45:06.056Z,63.71
2023-05-01T01:50:03.839Z,64.04
2023-05-01T01:55:06.212Z,63.64
2023-05-01T02:00:02.689Z,64.09
2023-05-01T02:05:01.394Z,63.62
2023-05-01T02:10:02.735Z,63.90
2023-05-01T02:15:01.506Z,63.33
2023-05-01T02:20:02.281Z,62.79
2023-05-01T02:25:02.179Z,62.72
2023-05-01T02:30:00.703Z,62.50
2023-05-01T02:35:00.489Z,61.95
2023-05-01T02:40:01.750Z,61.75
2023-05-01T02:45:02.788Z,61.44
2023-05-01T02:50:01.711Z,61.72
2023-05-01T02:55:00.988Z,61.56
2023-05-01T03:00:01.208Z,61.70
2023-05-01T03:05:00.474Z,61.50
2023-05-01T03:10:02.264Z,61.79
2023-05-01T03:15:00.504Z,61.70
2023-05-01T03:20:00.562Z,62.09
2023-05-01T03:25:00.520Z,62.18
2023-05-01T03:30:00.531Z,62.21
2023-05-01T03:35:00.507Z,62.51
2023-05-01T03:40:00.487Z,62.34
2023-05-01T03:45:00.459Z,62.65
2023-05-01T03:50:00.536Z,62.71
2023-05-01T03:55:00.495Z,62.45
2023-05-01T04:00:01.203Z,62.48
2023-05-01T04:05:00.500Z,62.38
2023-05-01T04:10:00.465Z,62.86
2023-05-01T04:15:00.549Z,63.04
2023-05-01T04:20:00.534Z,62.65
2023-05-01T04:25:00.548Z,63.08
2023-05-01T04:30:00.859Z,63.09
2023-05-01T04:35:00.544Z,63.37
2023-05-01T04:40:00.479Z,63.71
2023-05-01T04:45:00.454Z,63.65
2023-05-01T04:50:00.479Z,64.14
2023-05-01T04:55:00.533Z,63.99
2023-05-01T05:00:01.209Z,64.08
2023-05-01T05:05:00.462Z,64.30
2023-05-01T05:10:00.493Z,64.03
2023-05-01T05:15:00.514Z,63.86
2023-05-01T05:20:00.505Z,64.21
2023-05-01T05:25:00.526Z,63.99
2023-05-01T05:30:00.503Z,63.90
2023-05-01T05:35:00.496Z,63.90
2023-05-01T05:40:00.469Z,64.12
2023-05-01T05:45:00.474Z,63.70
2023-05-01T05:50:00.523Z,64.08
2023-05-01T05:55:00.522Z,63.47
2023-05-01T06:00:00.948Z,64.02
2023-05-01T06:05:00.569Z,64.04
2023-05-01T06:10:00.473Z,64.21
2023-05-01T06:15:00.496Z,64.34
2023-05-01T06:20:00.545Z,63.80
2023-05-01T06:25:00.601Z,63.15
2023-05-01T06:30:00.571Z,63.06
2023-05-01T06:35:00.465Z,62.12
2023-05-01T06:40:00.703Z,61.75
2023-05-01T06:45:00.455Z,60.89
2023-05-01T06:50:02.919Z,61.22
2023-05-01T06:55:00.482Z,61.06
2023-05-01T07:00:00.903Z,61.49
2023-05-01T07:05:00.461Z,62.39
2023-05-01T07:10:00.721Z,62.27
2023-05-01T07:15:00.515Z,61.47
2023-05-01T07:20:00.586Z,59.27
2023-05-01T07:25:00.490Z,55.54
2023-05-01T07:30:02.450Z,55.37
2023-05-01T07:35:00.487Z,54.64
2023-05-01T07:40:00.503Z,54.75
2023-05-01T07:45:00.500Z,54.54
2023-05-01T07:50:00.539Z,50.36
2023-05-01T07:55:00.462Z,51.34
2023-05-01T08:00:02.405Z,51.72
2023-05-01T08:05:00.810Z,51.69
2023-05-01T08:10:01.081Z,53.21
2023-05-01T08:15:00.490Z,51.19
2023-05-01T08:20:00.986Z,51.86
2023-05-01T08:25:00.480Z,48.12
2023-05-01T08:30:00.530Z,46.16
2023-05-01T08:35:00.510Z,45.30
2023-05-01T08:40:00.490Z,44.25
2023-05-01T08:45:01.898Z,44.35
2023-05-01T08:50:00.989Z,45.34
2023-05-01T08:55:01.416Z,45.00
2023-05-01T09:00:03.250Z,44.59
2023-05-01T09:05:01.256Z,45.47
2023-05-01T09:10:00.722Z,47.20
2023-05-01T09:15:02.156Z,46.15
2023-05-01T09:20:01.647Z,47.92
2023-05-01T09:25:00.749Z,49.28
2023-05-01T09:30:00.580Z,49.71
2023-05-01T09:35:09.835Z,50.61
2023-05-01T09:40:05.106Z,49.94
2023-05-01T09:45:02.858Z,51.29
2023-05-01T09:50:00.534Z,51.56
2023-05-01T09:55:11.817Z,51.03
2023-05-01T10:00:01.931Z,52.19
2023-05-01T10:05:00.972Z,49.63
2023-05-01T10:10:18.167Z,50.07
2023-05-01T10:15:05.485Z,48.48
2023-05-01T10:20:00.570Z,49.90
2023-05-01T10:25:01.041Z,48.66
2023-05-01T10:30:02.546Z,48.83
2023-05-01T10:35:06.058Z,47.45
2023-05-01T10:40:20.375Z,46.16
2023-05-01T10:45:20.366Z,46.54
2023-05-01T10:50:09.684Z,45.95
2023-05-01T10:55:20.374Z,44.70
2023-05-01T11:00:01.100Z,44.91
2023-05-01T11:05:00.900Z,46.30
2023-05-01T11:10:00.467Z,45.70
2023-05-01T11:15:01.669Z,45.60
2023-05-01T11:20:00.474Z,48.20
2023-05-01T11:25:01.215Z,47.28
2023-05-01T11:30:00.514Z,47.06
2023-05-01T11:35:00.742Z,45.38
2023-05-01T11:40:00.491Z,46.27
2023-05-01T11:45:08.460Z,43.78
2023-05-01T11:50:00.676Z,42.92
2023-05-01T11:55:01.213Z,42.43
2023-05-01T12:00:01.112Z,43.37
2023-05-01T12:05:14.523Z,42.73
2023-05-01T12:10:00.826Z,42.36
2023-05-01T12:15:01.434Z,43.80
2023-05-01T12:20:00.502Z,43.03
2023-05-01T12:25:00.823Z,43.37
2023-05-01T12:30:00.504Z,43.59
2023-05-01T12:35:14.095Z,44.57
2023-05-01T12:40:00.600Z,45.56
2023-05-01T12:45:01.070Z,46.65
2023-05-01T12:50:02.323Z,47.20
2023-05-01T12:55:01.872Z,47.64
2023-05-01T13:00:05.059Z,48.16
2023-05-01T13:05:09.613Z,47.77
2023-05-01T13:10:01.370Z,49.02
2023-05-01T13:15:00.600Z,50.40
2023-05-01T13:20:02.807Z,50.14
2023-05-01T13:25:01.535Z,50.92
2023-05-01T13:30:01.186Z,51.60
2023-05-01T13:35:01.078Z,51.68
2023-05-01T13:40:01.096Z,51.95
2023-05-01T13:45:00.575Z,51.48
2023-05-01T13:50:01.017Z,52.79
2023-05-01T13:55:03.430Z,52.96
2023-05-01T14:00:00.923Z,52.99
2023-05-01T14:05:01.279Z,54.66
2023-05-01T14:10:00.487Z,54.41
2023-05-01T14:15:01.067Z,55.38
2023-05-01T14:20:01.109Z,55.83
2023-05-01T14:25:05.020Z,57.70
2023-05-01T14:30:03.746Z,58.78
2023-05-01T14:35:00.592Z,57.57
2023-05-01T14:40:02.033Z,56.96
2023-05-01T14:45:04.509Z,55.46
2023-05-01T14:50:00.515Z,53.36
2023-05-01T14:55:00.794Z,48.05
2023-05-01T15:00:00.953Z,45.81
2023-05-01T15:05:00.738Z,46.75
2023-05-01T15:10:00.650Z,46.50
2023-05-01T15:15:00.723Z,44.92
2023-05-01T15:20:00.526Z,45.76
2023-05-01T15:25:00.803Z,46.53
2023-05-01T15:30:00.664Z,46.79
2023-05-01T15:35:00.790Z,45.14
2023-05-01T15:40:00.558Z,46.81
2023-05-01T15:45:01.515Z,46.34
2023-05-01T15:50:01.015Z,46.75
2023-05-01T15:55:00.480Z,47.32
2023-05-01T16:00:01.253Z,47.86
2023-05-01T16:05:00.459Z,47.39
2023-05-01T16:10:01.252Z,47.31
2023-05-01T16:15:01.105Z,48.54
2023-05-01T16:20:01.130Z,50.09
2023-05-01T16:25:00.489Z,48.56
2023-05-01T16:30:04.093Z,47.87
2023-05-01T16:35:00.844Z,48.40
2023-05-01T16:40:00.993Z,48.58
2023-05-01T16:45:00.744Z,48.79
2023-05-01T16:50:00.960Z,49.76
2023-05-01T16:55:00.567Z,50.92
2023-05-01T17:00:01.499Z,50.90
2023-05-01T17:05:01.007Z,51.82
2023-05-01T17:10:00.829Z,52.26
2023-05-01T17:15:00.462Z,53.00
2023-05-01T17:20:00.746Z,54.48
2023-05-01T17:25:00.497Z,56.14
2023-05-01T17:30:00.825Z,57.65
2023-05-01T17:35:00.758Z,57.85
2023-05-01T17:40:00.770Z,57.85
2023-05-01T17:45:00.467Z,58.73
2023-05-01T17:50:02.690Z,58.57
2023-05-01T17:55:00.654Z,59.53
2023-05-01T18:00:01.562Z,59.54
2023-05-01T18:05:01.155Z,60.29
2023-05-01T18:10:01.073Z,60.63
2023-05-01T18:15:00.461Z,62.36
2023-05-01T18:20:00.928Z,62.14
2023-05-01T18:25:00.594Z,62.89
2023-05-01T18:30:01.002Z,63.06
2023-05-01T18:35:00.491Z,63.11
2023-05-01T18:40:00.870Z,64.57
2023-05-01T18:45:00.515Z,63.14
2023-05-01T18:50:01.157Z,64.58
2023-05-01T18:55:00.497Z,65.19
2023-05-01T19:00:01.596Z,65.63
2023-05-01T19:05:00.552Z,65.81
2023-05-01T19:10:01.090Z,66.82
2023-05-01T19:15:00.463Z,67.16
2023-05-01T19:20:00.857Z,67.47
2023-05-01T19:25:00.734Z,69.00
2023-05-01T19:30:00.893Z,69.01
2023-05-01T19:35:00.635Z,70.03
2023-05-01T19:40:00.735Z,70.42
2023-05-01T19:45:00.469Z,70.68
2023-05-01T19:50:00.913Z,71.14
2023-05-01T19:55:02.845Z,71.89
2023-05-01T20:00:02.409Z,71.61
2023-05-01T20:05:00.533Z,71.92
2023-05-01T20:10:00.835Z,72.08
2023-05-01T20:15:00.541Z,72.22
2023-05-01T20:20:00.898Z,73.66
2023-05-01T20:25:00.673Z,74.22
2023-05-01T20:30:00.886Z,73.80
2023-05-01T20:35:00.480Z,76.09
2023-05-01T20:40:00.907Z,76.42
2023-05-01T20:45:00.493Z,78.01
2023-05-01T20:50:00.882Z,79.31
2023-05-01T20:55:00.498Z,79.29
2023-05-01T21:00:01.698Z,78.54
2023-05-01T21:05:00.479Z,78.76
2023-05-01T21:10:00.723Z,78.04
2023-05-01T21:15:01.750Z,76.91
2023-05-01T21:20:03.101Z,78.67
2023-05-01T21:25:00.528Z,78.62
2023-05-01T21:30:00.921Z,78.03
2023-05-01T21:35:01.629Z,79.46
2023-05-01T21:40:01.431Z,80.64
2023-05-01T21:45:05.822Z,80.25
2023-05-01T21:50:00.977Z,79.99
2023-05-01T21:55:01.631Z,80.39
2023-05-01T22:00:02.565Z,80.60
2023-05-01T22:05:00.535Z,80.76
2023-05-01T22:10:00.830Z,79.90
2023-05-01T22:15:00.617Z,79.50
2023-05-01T22:20:01.033Z,78.82
2023-05-01T22:25:00.861Z,78.42
2023-05-01T22:30:02.042Z,78.60
2023-05-01T22:35:00.610Z,78.75
2023-05-01T22:40:00.780Z,78.92
2023-05-01T22:45:00.485Z,77.63
2023-05-01T22:50:01.159Z,78.66
2023-05-01T22:55:00.594Z,78.18
2023-05-01T23:00:02.491Z,77.80
2023-05-01T23:05:00.473Z,78.64
2023-05-01T23:10:00.773Z,79.19
2023-05-01T23:15:01.163Z,78.93
2023-05-01T23:20:01.271Z,78.17
2023-05-01T23:25:00.513Z,79.03
2023-05-01T23:30:00.924Z,77.80
2023-05-01T23:35:08.563Z,77.95
2023-05-01T23:40:00.869Z,78.20
2023-05-01T23:45:00.554Z,78.11
2023-05-01T23:50:01.054Z,79.69
2023-05-01T23:55:00.493Z,80.05
